Aries — J8B5410 — position and weather

sailwx.info

Track history (hours):
 
Tides and Currents Weather Stations Pressure Air Temp Water Temp Dewpoint Dewpoint Depression Visibility Wind Speed Wind Dir Waves Ship Positions

Aries

Last reported at 2018-May-28 22:58 UTC. Time now 2018-Jun-23 21:42 UTC.
Position N 09°13' W 079°55'.
Warning: this ship's position is 25 days out of date.

Length 110 m; draft 5.3 m.

Type: Cargo ship. MMSI: 377523000.

Date/timePositionNaut miles runAvg speedWind from/ knotsBaromVisibWave heightAir tempDewpointWater temp
2018-May-28 22:58N 09°13' W 079°55'3 7.6
2018-May-28 22:30N 09°16' W 079°55'0 0.6
2018-May-28 22:00N 09°17' W 079°55'0 0.4
2018-May-28 21:30N 09°17' W 079°55'1 2.0
2018-May-28 21:00N 09°18' W 079°55'3 6.4
2018-May-28 20:30N 09°21' W 079°55'1 2.8
2018-May-28 20:00N 09°22' W 079°55'0 0.1
2018-May-28 19:29N 09°22' W 079°55'0 0.1
2018-May-28 18:57N 09°22' W 079°55'0 0.0
2018-May-28 18:27N 09°22' W 079°55'0 0.1
2018-May-28 17:59N 09°22' W 079°55'0 0.2
2018-May-28 17:30N 09°22' W 079°55'0 0.1
2018-May-28 16:58N 09°22' W 079°55'0 0.1
2018-May-28 16:30N 09°22' W 079°55'0 0.1
2018-May-28 15:58N 09°22' W 079°55'0 0.0
2018-May-28 15:29N 09°22' W 079°55'0 0.0
2018-May-28 14:58N 09°22' W 079°55'0 0.0
2018-May-28 14:29N 09°22' W 079°55'0 0.0
2018-May-28 13:58N 09°22' W 079°55'0 0.0
2018-May-28 13:27N 09°22' W 079°55'0 0.0
2018-May-28 13:00N 09°22' W 079°55'0 0.0
2018-May-28 12:30N 09°22' W 079°55'0 0.0
2018-May-28 11:54N 09°22' W 079°55'0 0.0
2018-May-28 11:27N 09°22' W 079°55'0 0.0
2018-May-28 10:59N 09°22' W 079°55'0 0.0
2018-May-28 10:29N 09°22' W 079°55'0 0.0
2018-May-28 09:59N 09°22' W 079°55'0 0.0
2018-May-28 09:30N 09°22' W 079°55'0 0.0
2018-May-28 09:00N 09°22' W 079°55'0 0.0
2018-May-28 08:30N 09°22' W 079°55'0 0.0
2018-May-28 08:00N 09°22' W 079°55'0 0.0
2018-May-28 07:29N 09°22' W 079°55'0 0.0
2018-May-28 06:59N 09°22' W 079°55'1 1.2
2018-May-28 06:30N 09°23' W 079°55'1 2.4
2018-May-28 05:59N 09°24' W 079°56'0 0.1
2018-May-28 05:30N 09°24' W 079°56'0 0.0
2018-May-28 05:00N 09°24' W 079°56'0 0.0
2018-May-28 04:27N 09°24' W 079°56'0 0.0
2018-May-28 03:57N 09°24' W 079°56'0 0.0
2018-May-28 03:29N 09°24' W 079°56'0 0.0
2018-May-28 03:00N 09°24' W 079°56'0 0.0
2018-May-28 02:24N 09°24' W 079°56'0 0.0
2018-May-28 01:58N 09°24' W 079°56'0 0.0
2018-May-28 01:27N 09°24' W 079°56'0 0.0
2018-May-28 01:00N 09°24' W 079°56'0 0.0
2018-May-28 00:30N 09°24' W 079°56'0 0.2
2018-May-28 00:00N 09°24' W 079°56'3 5.9
2018-May-27 23:29N 09°27' W 079°55'510.2
2018-May-27 23:00N 09°32' W 079°54'610.7
2018-May-27 22:29N 09°36' W 079°51'  
Track history (hours):
 
Tides and Currents Weather Stations Pressure Air Temp Water Temp Dewpoint Dewpoint Depression Visibility Wind Speed Wind Dir Waves Ship Positions

Aries

Last reported at 2018-May-28 22:58 UTC. Time now 2018-Jun-23 21:42 UTC.
Position N 09°13' W 079°55'.
Warning: this ship's position is 25 days out of date.

Length 110 m; draft 5.3 m.

Type: Cargo ship. MMSI: 377523000.

Date/timePositionNaut miles runAvg speedWind from/ knotsBaromVisibWave heightAir tempDewpointWater temp
2018-May-28 22:58N 09°13' W 079°55'3 7.6
2018-May-28 22:30N 09°16' W 079°55'0 0.6
2018-May-28 22:00N 09°17' W 079°55'0 0.4
2018-May-28 21:30N 09°17' W 079°55'1 2.0
2018-May-28 21:00N 09°18' W 079°55'3 6.4
2018-May-28 20:30N 09°21' W 079°55'1 2.8
2018-May-28 20:00N 09°22' W 079°55'0 0.1
2018-May-28 19:29N 09°22' W 079°55'0 0.1
2018-May-28 18:57N 09°22' W 079°55'0 0.0
2018-May-28 18:27N 09°22' W 079°55'0 0.1
2018-May-28 17:59N 09°22' W 079°55'0 0.2
2018-May-28 17:30N 09°22' W 079°55'0 0.1
2018-May-28 16:58N 09°22' W 079°55'0 0.1
2018-May-28 16:30N 09°22' W 079°55'0 0.1
2018-May-28 15:58N 09°22' W 079°55'0 0.0
2018-May-28 15:29N 09°22' W 079°55'0 0.0
2018-May-28 14:58N 09°22' W 079°55'0 0.0
2018-May-28 14:29N 09°22' W 079°55'0 0.0
2018-May-28 13:58N 09°22' W 079°55'0 0.0
2018-May-28 13:27N 09°22' W 079°55'0 0.0
2018-May-28 13:00N 09°22' W 079°55'0 0.0
2018-May-28 12:30N 09°22' W 079°55'0 0.0
2018-May-28 11:54N 09°22' W 079°55'0 0.0
2018-May-28 11:27N 09°22' W 079°55'0 0.0
2018-May-28 10:59N 09°22' W 079°55'0 0.0
2018-May-28 10:29N 09°22' W 079°55'0 0.0
2018-May-28 09:59N 09°22' W 079°55'0 0.0
2018-May-28 09:30N 09°22' W 079°55'0 0.0
2018-May-28 09:00N 09°22' W 079°55'0 0.0
2018-May-28 08:30N 09°22' W 079°55'0 0.0
2018-May-28 08:00N 09°22' W 079°55'0 0.0
2018-May-28 07:29N 09°22' W 079°55'0 0.0
2018-May-28 06:59N 09°22' W 079°55'1 1.2
2018-May-28 06:30N 09°23' W 079°55'1 2.4
2018-May-28 05:59N 09°24' W 079°56'0 0.1
2018-May-28 05:30N 09°24' W 079°56'0 0.0
2018-May-28 05:00N 09°24' W 079°56'0 0.0
2018-May-28 04:27N 09°24' W 079°56'0 0.0
2018-May-28 03:57N 09°24' W 079°56'0 0.0
2018-May-28 03:29N 09°24' W 079°56'0 0.0
2018-May-28 03:00N 09°24' W 079°56'0 0.0
2018-May-28 02:24N 09°24' W 079°56'0 0.0
2018-May-28 01:58N 09°24' W 079°56'0 0.0
2018-May-28 01:27N 09°24' W 079°56'0 0.0
2018-May-28 01:00N 09°24' W 079°56'0 0.0
2018-May-28 00:30N 09°24' W 079°56'0 0.2
2018-May-28 00:00N 09°24' W 079°56'3 5.9
2018-May-27 23:29N 09°27' W 079°55'510.2
2018-May-27 23:00N 09°32' W 079°54'610.7
2018-May-27 22:29N 09°36' W 079°51'  

Dump ship's entire track history